Amboy, WA

9:36 PM PDT on August 20, 2014 (GMT -0700)
Rock Creek Area | Change Station
CLOSE
Current Station
Personal Weather Station
Location: Battle Ground, WA
Elevation: 420 ft
Nearby Weather Stations

Elev 420 ft 45.85 °N, 122.52 °W | Updated 1 minute ago

Clear
Clear
61.8 °F
Feels Like 61.8 °F
N
0.0
Wind Variable Wind from NNE
Gusts 0.0 mph

Today
High -- | Low -- °F
--% Chance of Precip.
Yesterday
High -- | Low -- °F
Precip. -- in
6:16 AM 8:09 PM
Waning Crescent, 17% visible
Pressure 29.98 in
Visibility 10.0 miles
Clouds Clear
Dew Point 54 °F
Humidity 75%
Rainfall 0.00 in
Snow Depth Not available.
UV 0.0 out of 12
Pollen 3.70 out of 12
Air Quality Not available.
Flu Activity Not available.
METAR KSPB 210353Z AUTO 34005KT 10SM CLR 18/09 A2998 RMK AO2 SLP150 T01780094

More Conditions Fewer Conditions

Pressure 29.98 in
Visibility 10.0 miles
Clouds Clear
Dew Point 54 °F
Humidity 75%
Rainfall 0.00 in
Snow Depth Not available.
UV 0.0 out of 12
Pollen 3.70 out of 12
Air Quality Not available.
Flu Activity Not available.
METAR KSPB 210353Z AUTO 34005KT 10SM CLR 18/09 A2998 RMK AO2 SLP150 T01780094

More Conditions Fewer Conditions

10-Day Weather Forecast

Almanac

Astronomy

Aug. 20, 2014 Rise Set
Actual Time 6:16 AM PDT 8:09 PM PDT
Civil Twilight 5:44 AM PDT 8:41 PM PDT
Nautical Twilight 5:04 AM PDT 9:20 PM PDT
Astronomical Twilight 4:21 AM PDT 10:03 PM PDT
Moon 1:54 AM PDT (8/20) 5:04 PM PDT (8/20)
Length of Visible Light 14h 57m
Length of Day
13h 53m
Tomorrow will be 2m 59s shorter.
Waning Crescent, 17% of the Moon is Illuminated
Aug 21
Waning Crescent
Aug 25
New
Sep 2
First Quarter
Sep 8
Full
Sep 15
Last Quarter

Today's Extremes

State Highs State Lows

Community

WunderPhotos

Upload Photos

1,745,854 photos uploaded!

Nearby

Snow Depth

Station Depth Elevation
Sheep Canyon 0 in 4030 ft
June Lake 0 in 3340 ft
Swift Creek 0 in 3770 ft
Spirit Lake 0 in 3120 ft
Spencer Meadow 0 in 3400 ft

Earthquake Activity

City Distance Mag. Time & Date
No recent earthquake activity has been reported nearby.
Minimum magnitude displayed is 2.5.

Coastal Water Temperatures

Place Temperature
No Stations Reporting

Nearby Weather Stations